Crawfordsville, Arkansas
Current Conditions -  °F | °C
As of 8:53 AM on Wednesday 22 Oct 2014 (Local Time) from KAWM Reporting Station
Clear Clear  
Wind Chill: 55°   Ceiling: Unl
Heat Index: 55°   Visibility: 10mi
Dew Point: 47°   Wind: 7mph
Humidity: 74%   Direction: 70°ENE
Pressure: 30.23"   Gusts: NA
Location:  35.23°N, 90.33°W
Report Text: KAWM 221353Z AUTO 07006KT 10SM CLR 13/08 A3023 RMK AO2 SLP237 T01280083
Loading
Personal Weather Stations






























Interactive Weather Map
Tropical Storm Tracking
New forecast layout! Learn more

10-Day Weather Forecast

Advertisements
Track Severe Weather on mobile